• Join FlightAware (Why Join?)
  • Login
  • US Flag 
06:50PM EST


 

Airport Tracker/Info


-or-


 

Live Flight TrackerFlight Track Log ✈ LOF3416 ✈ 22-Apr-2013 ✈ KIAD - KDAY

Flight Track Log - Related Links

Times and Time Zones

All times are in EDT time to prevent confusion due to time zone crossing. See the LOF3416 flight status page for this flight to view local times or setup timezone preferences in your user account.

Time Position Orientation Groundspeed Altitude Reporting Facility
EDT Latitude Longitude Course Direction KTS MPH feet Rate Location/Type
10:32PM 38.9333 -77.5500 270° West 211 243 2,700  Level Potomac TRACON
10:33PM 38.9333 -77.6333 270° West 254 292 5,600 3,170 Climbing Potomac TRACON
10:34PM 38.9158 -77.6967 250° West 250 288 8,300 2,604 Climbing Washington Center
10:35PM 38.8975 -77.7947 257° West 265 305 10,200 2,100 Climbing Washington Center
10:36PM 38.9095 -78.0713 288° West  Level FlightAware Approximate
10:36PM 38.8767 -77.8981 256° West 299 344 12,500  Level Washington Center
10:37PM 38.9461 -78.1921 303° West  Level FlightAware Approximate
10:37PM 38.8894 -77.9892 280° West 293 337 14,500  Level Washington Center
10:38PM 38.9500 -78.3211 270° West  Level FlightAware Approximate
10:38PM 38.9228 -78.0969 292° West 304 350 15,800  Level Washington Center
10:39PM 38.9578 -78.2103 292° West 320 368 16,900 550 Climbing Washington Center
10:40PM 38.9656 -78.3308 275° West 332 382 16,900 650 Level Washington Center
10:41PM 38.9692 -78.4511 272° West 337 388 18,200 1,450 Climbing Washington Center
10:42PM 38.9722 -78.5742 272° West 342 394 19,800 1,650 Climbing Washington Center
10:43PM 38.9756 -78.6997 272° West 348 400 21,500 1,500 Climbing Washington Center
10:44PM 38.9783 -78.8281 272° West 353 406 22,800 1,300 Climbing Washington Center
10:45PM 38.9831 -78.9617 273° West 369 425 24,100 1,400 Climbing Washington Center
10:46PM 38.9875 -79.0928 273° West 369 425 25,600 1,300 Climbing Washington Center
10:47PM 38.9897 -79.2264 271° West 369 425 26,700 1,050 Climbing Washington Center
10:48PM 38.9942 -79.3603 272° West 369 425 27,700 650 Climbing Washington Center
10:49PM 38.9981 -79.4967 272° West 374 430 28,000 150 Climbing Washington Center
10:50PM 38.9997 -79.6331 271° West 407 468 28,000  Level Washington Center
10:51PM 39.0011 -79.7747 271° West 414 476 28,000  Level Washington Center
10:52PM 39.0019 -79.9297 270° West 419 482 28,000  Level Washington Center
10:53PM 39.0064 -80.0903 272° West 419 482 28,000  Level Washington Center
10:54PM 39.0064 -80.2342 270° West 421 484 28,000  Level Indianapolis Center
10:55PM 39.0078 -80.3839 271° West 418 481 28,000  Level Indianapolis Center
10:56PM 39.0092 -80.5344 271° West 423 487 28,000  Level Indianapolis Center
10:57PM 39.0269 -80.7144 277° West 424 488 28,000  Level Indianapolis Center
10:58PM 39.0503 -80.8642 281° West 426 490 28,000  Level Indianapolis Center
10:59PM 39.0717 -81.0131 281° West 427 491 28,000  Level Indianapolis Center
11:00PM 39.0933 -81.1633 281° West 429 494 28,000  Level Indianapolis Center
11:01PM 39.1150 -81.3125 281° West 429 494 28,000 -393 Level Indianapolis Center
11:03PM 39.1356 -81.4611 280° West 425 489 27,200 -878 Descending Indianapolis Center
11:04PM 39.1567 -81.6119 280° West 430 495 26,200 -976 Descending Indianapolis Center
11:05PM 39.1769 -81.7631 280° West 433 498 25,200 -984 Descending Indianapolis Center
11:06PM 39.1978 -81.9164 280° West 436 502 24,200 -1,082 Descending Indianapolis Center
11:07PM 39.2206 -82.0883 280° West 409 471 23,000 -1,073 Descending Indianapolis Center
11:08PM 39.2400 -82.2336 280° West 410 472 22,000 -976 Descending Indianapolis Center
11:09PM 39.2583 -82.3750 280° West 404 465 21,000 -984 Descending Indianapolis Center
11:10PM 39.2772 -82.5158 280° West 396 456 20,000 -984 Descending Indianapolis Center
11:11PM 39.2939 -82.6564 279° West 393 452 19,000 -885 Descending Indianapolis Center
11:12PM 39.3133 -82.7950 280° West 389 448 18,200 -585 Descending Indianapolis Center
11:13PM 39.3300 -82.9314 279° West 382 440 17,800 -439 Descending Indianapolis Center
11:14PM 39.3464 -83.0650 279° West 375 432 17,300 -492 Descending Indianapolis Center
11:15PM 39.3628 -83.1992 279° West 374 430 16,800 -1,086 Descending Indianapolis Center
11:15PM 39.3761 -83.3089 279° West 381 438 15,400 -1,869 Descending Indianapolis Center
11:16PM 39.3797 -83.3353 280° West 379 436 14,900 -2,000 Descending Indianapolis Center
11:16PM 39.4006 -83.4358 285° West 360 414 13,400 -1,967 Descending Indianapolis Center
11:17PM 39.4136 -83.4581 307° West 367 422 12,900 -1,418 Descending Indianapolis Center
11:17PM 39.4653 -83.5219 316° Northwest 367 422 12,100 -1,065 Descending Indianapolis Center
11:18PM 39.4886 -83.5506 317° Northwest 366 421 11,800 -984 Descending Indianapolis Center
11:18PM 39.5383 -83.6119 316° Northwest 359 413 11,100 -984 Descending Indianapolis Center
11:19PM 39.5622 -83.6394 318° Northwest 359 413 10,800 -1,000 Descending Indianapolis Center
11:19PM 39.6133 -83.7025 316° Northwest 353 406 10,100 -885 Descending Indianapolis Center
11:20PM 39.6339 -83.7269 318° Northwest 352 405 9,900 -393 Descending Indianapolis Center
11:20PM 39.6728 -83.7750 316° Northwest 271 312 9,700 -590 Descending Indianapolis Center
11:21PM 39.6917 -83.7975 317° Northwest 290 334 9,300 -1,180 Descending Indianapolis Center
11:21PM 39.7303 -83.8447 317° Northwest 280 322 8,500 -1,279 Descending Indianapolis Center
11:22PM 39.7500 -83.8667 319° Northwest 279 321 8,000 -1,600 Descending Indianapolis Center
11:22PM 39.7903 -83.9122 319° Northwest 276 318 6,900 -1,672 Descending Indianapolis Center
11:23PM 39.8072 -83.9344 315° West 278 320 6,300 -1,855 Descending Indianapolis Center
11:23PM 39.8333 -83.9775 308° West 265 305 5,200 -1,672 Descending Indianapolis Center
11:24PM 39.8556 -84.0103 311° West 272 313 4,600 -1,500 Descending Indianapolis Center
11:24PM 39.8822 -84.0517 310° West 268 308 3,700 -1,355 Descending Indianapolis Center
11:25PM 39.9042 -84.0808 314° West 266 306 3,200 -857 Descending Indianapolis Center